sensor_id;sensor_type;location;lat;lon;timestamp;P1;durP1;ratioP1;P2;durP2;ratioP2
842;SDS011;407;48.884;9.126;2022-07-12T00:02:10;7.30;;;2.80;;
842;SDS011;407;48.884;9.126;2022-07-12T00:04:36;7.55;;;3.00;;
842;SDS011;407;48.884;9.126;2022-07-12T00:07:01;6.70;;;3.10;;
842;SDS011;407;48.884;9.126;2022-07-12T00:09:27;6.40;;;2.77;;
842;SDS011;407;48.884;9.126;2022-07-12T00:11:53;7.65;;;2.60;;
842;SDS011;407;48.884;9.126;2022-07-12T00:14:20;6.40;;;2.90;;
842;SDS011;407;48.884;9.126;2022-07-12T00:16:46;7.68;;;3.65;;
842;SDS011;407;48.884;9.126;2022-07-12T00:19:12;6.50;;;2.80;;
842;SDS011;407;48.884;9.126;2022-07-12T00:21:38;6.60;;;2.83;;
842;SDS011;407;48.884;9.126;2022-07-12T00:24:04;6.90;;;2.60;;
842;SDS011;407;48.884;9.126;2022-07-12T00:26:30;7.00;;;2.80;;
842;SDS011;407;48.884;9.126;2022-07-12T00:28:56;6.20;;;2.80;;
842;SDS011;407;48.884;9.126;2022-07-12T00:31:22;8.38;;;3.13;;
842;SDS011;407;48.884;9.126;2022-07-12T00:33:48;6.70;;;2.70;;
842;SDS011;407;48.884;9.126;2022-07-12T00:36:13;6.60;;;2.60;;
842;SDS011;407;48.884;9.126;2022-07-12T00:38:39;6.80;;;2.70;;
842;SDS011;407;48.884;9.126;2022-07-12T00:41:05;6.07;;;2.40;;
842;SDS011;407;48.884;9.126;2022-07-12T00:43:31;5.80;;;2.25;;
842;SDS011;407;48.884;9.126;2022-07-12T00:45:56;6.40;;;2.70;;
842;SDS011;407;48.884;9.126;2022-07-12T00:48:22;6.80;;;2.50;;
842;SDS011;407;48.884;9.126;2022-07-12T00:50:48;8.43;;;2.60;;
842;SDS011;407;48.884;9.126;2022-07-12T00:53:14;6.50;;;2.63;;
842;SDS011;407;48.884;9.126;2022-07-12T00:55:41;6.07;;;2.70;;
842;SDS011;407;48.884;9.126;2022-07-12T00:58:07;6.30;;;2.73;;
842;SDS011;407;48.884;9.126;2022-07-12T01:00:33;7.30;;;3.30;;
842;SDS011;407;48.884;9.126;2022-07-12T01:03:00;8.38;;;3.35;;
842;SDS011;407;48.884;9.126;2022-07-12T01:05:27;7.45;;;2.90;;
842;SDS011;407;48.884;9.126;2022-07-12T01:07:53;8.13;;;2.70;;
842;SDS011;407;48.884;9.126;2022-07-12T01:10:20;6.50;;;2.53;;
842;SDS011;407;48.884;9.126;2022-07-12T01:12:46;7.80;;;2.70;;
842;SDS011;407;48.884;9.126;2022-07-12T01:15:12;6.70;;;2.50;;
842;SDS011;407;48.884;9.126;2022-07-12T01:17:38;6.47;;;2.57;;
842;SDS011;407;48.884;9.126;2022-07-12T01:20:04;5.95;;;2.63;;
842;SDS011;407;48.884;9.126;2022-07-12T01:22:32;7.10;;;2.70;;
842;SDS011;407;48.884;9.126;2022-07-12T01:25:00;6.00;;;2.63;;
842;SDS011;407;48.884;9.126;2022-07-12T01:27:27;6.50;;;2.40;;
842;SDS011;407;48.884;9.126;2022-07-12T01:29:55;8.00;;;2.42;;
842;SDS011;407;48.884;9.126;2022-07-12T01:32:20;6.00;;;2.50;;
842;SDS011;407;48.884;9.126;2022-07-12T01:34:53;5.80;;;2.40;;
842;SDS011;407;48.884;9.126;2022-07-12T01:37:20;7.00;;;2.55;;
842;SDS011;407;48.884;9.126;2022-07-12T01:39:48;6.07;;;2.22;;
842;SDS011;407;48.884;9.126;2022-07-12T01:42:18;7.65;;;2.70;;
842;SDS011;407;48.884;9.126;2022-07-12T01:44:44;6.35;;;2.47;;
842;SDS011;407;48.884;9.126;2022-07-12T01:47:10;7.87;;;2.90;;
842;SDS011;407;48.884;9.126;2022-07-12T01:49:36;6.55;;;3.05;;
842;SDS011;407;48.884;9.126;2022-07-12T01:52:02;6.93;;;2.80;;
842;SDS011;407;48.884;9.126;2022-07-12T01:54:29;6.90;;;2.70;;
842;SDS011;407;48.884;9.126;2022-07-12T01:56:55;6.80;;;2.90;;
842;SDS011;407;48.884;9.126;2022-07-12T01:59:20;6.75;;;3.05;;
842;SDS011;407;48.884;9.126;2022-07-12T02:01:46;6.97;;;3.10;;
842;SDS011;407;48.884;9.126;2022-07-12T02:04:16;6.20;;;3.00;;
842;SDS011;407;48.884;9.126;2022-07-12T02:06:46;6.30;;;2.70;;
842;SDS011;407;48.884;9.126;2022-07-12T02:09:13;7.25;;;3.20;;
842;SDS011;407;48.884;9.126;2022-07-12T02:11:39;6.80;;;3.20;;
842;SDS011;407;48.884;9.126;2022-07-12T02:14:05;6.20;;;2.97;;
842;SDS011;407;48.884;9.126;2022-07-12T02:16:31;6.57;;;2.88;;
842;SDS011;407;48.884;9.126;2022-07-12T02:18:57;6.63;;;2.95;;
842;SDS011;407;48.884;9.126;2022-07-12T02:21:23;6.40;;;3.10;;
842;SDS011;407;48.884;9.126;2022-07-12T02:23:49;8.77;;;3.60;;
842;SDS011;407;48.884;9.126;2022-07-12T02:26:14;7.43;;;3.50;;
842;SDS011;407;48.884;9.126;2022-07-12T02:28:41;7.55;;;3.70;;
842;SDS011;407;48.884;9.126;2022-07-12T02:31:07;7.70;;;3.30;;
842;SDS011;407;48.884;9.126;2022-07-12T02:33:33;6.00;;;2.80;;
842;SDS011;407;48.884;9.126;2022-07-12T02:35:59;6.70;;;3.10;;
842;SDS011;407;48.884;9.126;2022-07-12T02:38:25;7.07;;;3.37;;
842;SDS011;407;48.884;9.126;2022-07-12T02:40:51;6.90;;;2.95;;
842;SDS011;407;48.884;9.126;2022-07-12T02:43:26;7.00;;;3.30;;
842;SDS011;407;48.884;9.126;2022-07-12T02:45:54;8.55;;;3.50;;
842;SDS011;407;48.884;9.126;2022-07-12T02:48:27;6.90;;;3.10;;
842;SDS011;407;48.884;9.126;2022-07-12T02:50:53;7.18;;;3.15;;
842;SDS011;407;48.884;9.126;2022-07-12T02:53:18;9.30;;;3.80;;
842;SDS011;407;48.884;9.126;2022-07-12T02:55:44;9.23;;;4.50;;
842;SDS011;407;48.884;9.126;2022-07-12T02:58:10;7.70;;;3.50;;
842;SDS011;407;48.884;9.126;2022-07-12T03:00:37;7.57;;;4.00;;
842;SDS011;407;48.884;9.126;2022-07-12T03:03:03;7.82;;;3.60;;
842;SDS011;407;48.884;9.126;2022-07-12T03:05:28;7.07;;;3.13;;
842;SDS011;407;48.884;9.126;2022-07-12T03:07:54;10.00;;;3.60;;
842;SDS011;407;48.884;9.126;2022-07-12T03:10:20;7.95;;;4.03;;
842;SDS011;407;48.884;9.126;2022-07-12T03:12:46;7.80;;;3.72;;
842;SDS011;407;48.884;9.126;2022-07-12T03:15:11;9.23;;;3.97;;
842;SDS011;407;48.884;9.126;2022-07-12T03:17:38;7.63;;;3.63;;
842;SDS011;407;48.884;9.126;2022-07-12T03:20:04;6.60;;;3.33;;
842;SDS011;407;48.884;9.126;2022-07-12T03:22:32;8.10;;;3.85;;
842;SDS011;407;48.884;9.126;2022-07-12T03:24:58;8.52;;;3.90;;
842;SDS011;407;48.884;9.126;2022-07-12T03:27:23;6.73;;;3.30;;
842;SDS011;407;48.884;9.126;2022-07-12T03:29:50;8.57;;;3.90;;
842;SDS011;407;48.884;9.126;2022-07-12T03:32:16;7.97;;;3.90;;
842;SDS011;407;48.884;9.126;2022-07-12T03:34:41;7.55;;;3.80;;
842;SDS011;407;48.884;9.126;2022-07-12T03:37:07;8.10;;;3.53;;
842;SDS011;407;48.884;9.126;2022-07-12T03:39:33;7.80;;;3.73;;
842;SDS011;407;48.884;9.126;2022-07-12T03:41:58;7.63;;;3.45;;
842;SDS011;407;48.884;9.126;2022-07-12T03:44:24;8.23;;;3.90;;
842;SDS011;407;48.884;9.126;2022-07-12T03:46:49;6.80;;;3.20;;
842;SDS011;407;48.884;9.126;2022-07-12T03:49:15;7.10;;;3.60;;
842;SDS011;407;48.884;9.126;2022-07-12T03:51:41;6.60;;;3.10;;
842;SDS011;407;48.884;9.126;2022-07-12T03:54:07;8.00;;;4.03;;
842;SDS011;407;48.884;9.126;2022-07-12T03:56:34;9.10;;;3.70;;
842;SDS011;407;48.884;9.126;2022-07-12T03:59:18;8.00;;;3.60;;
842;SDS011;407;48.884;9.126;2022-07-12T04:01:44;8.00;;;4.10;;
842;SDS011;407;48.884;9.126;2022-07-12T04:04:10;8.77;;;3.60;;
842;SDS011;407;48.884;9.126;2022-07-12T04:06:35;8.30;;;3.70;;
842;SDS011;407;48.884;9.126;2022-07-12T04:09:01;8.73;;;4.40;;
842;SDS011;407;48.884;9.126;2022-07-12T04:11:27;8.35;;;4.30;;
842;SDS011;407;48.884;9.126;2022-07-12T04:13:53;9.13;;;4.18;;
842;SDS011;407;48.884;9.126;2022-07-12T04:16:18;8.63;;;4.07;;
842;SDS011;407;48.884;9.126;2022-07-12T04:18:44;8.53;;;3.70;;
842;SDS011;407;48.884;9.126;2022-07-12T04:21:10;9.10;;;4.60;;
842;SDS011;407;48.884;9.126;2022-07-12T04:23:35;10.38;;;4.40;;
842;SDS011;407;48.884;9.126;2022-07-12T04:26:01;8.00;;;4.00;;
842;SDS011;407;48.884;9.126;2022-07-12T04:28:26;8.83;;;4.50;;
842;SDS011;407;48.884;9.126;2022-07-12T04:30:52;9.43;;;4.20;;
842;SDS011;407;48.884;9.126;2022-07-12T04:33:18;9.82;;;4.30;;
842;SDS011;407;48.884;9.126;2022-07-12T04:35:43;8.23;;;4.07;;
842;SDS011;407;48.884;9.126;2022-07-12T04:38:09;7.43;;;4.10;;
842;SDS011;407;48.884;9.126;2022-07-12T04:40:35;9.10;;;4.30;;
842;SDS011;407;48.884;9.126;2022-07-12T04:43:01;7.90;;;4.20;;
842;SDS011;407;48.884;9.126;2022-07-12T04:45:26;9.20;;;4.60;;
842;SDS011;407;48.884;9.126;2022-07-12T04:47:52;8.17;;;4.30;;
842;SDS011;407;48.884;9.126;2022-07-12T04:50:18;8.20;;;4.30;;
842;SDS011;407;48.884;9.126;2022-07-12T04:52:43;8.10;;;4.03;;
842;SDS011;407;48.884;9.126;2022-07-12T04:55:09;9.20;;;4.40;;
842;SDS011;407;48.884;9.126;2022-07-12T04:57:35;8.50;;;4.30;;
842;SDS011;407;48.884;9.126;2022-07-12T05:00:00;10.05;;;4.38;;
842;SDS011;407;48.884;9.126;2022-07-12T05:02:27;8.40;;;4.17;;
842;SDS011;407;48.884;9.126;2022-07-12T05:04:53;8.23;;;4.10;;
842;SDS011;407;48.884;9.126;2022-07-12T05:07:19;8.82;;;4.30;;
842;SDS011;407;48.884;9.126;2022-07-12T05:09:44;7.50;;;3.63;;
842;SDS011;407;48.884;9.126;2022-07-12T05:12:10;8.20;;;3.87;;
842;SDS011;407;48.884;9.126;2022-07-12T05:14:36;7.53;;;3.60;;
842;SDS011;407;48.884;9.126;2022-07-12T05:17:01;7.90;;;3.40;;
842;SDS011;407;48.884;9.126;2022-07-12T05:19:27;7.80;;;3.63;;
842;SDS011;407;48.884;9.126;2022-07-12T05:21:52;8.10;;;3.70;;
842;SDS011;407;48.884;9.126;2022-07-12T05:24:18;8.40;;;3.60;;
842;SDS011;407;48.884;9.126;2022-07-12T05:26:44;7.80;;;3.87;;
842;SDS011;407;48.884;9.126;2022-07-12T05:29:09;7.38;;;3.53;;
842;SDS011;407;48.884;9.126;2022-07-12T05:31:35;7.30;;;3.58;;
842;SDS011;407;48.884;9.126;2022-07-12T05:34:01;7.32;;;4.50;;
842;SDS011;407;48.884;9.126;2022-07-12T05:36:27;7.43;;;4.45;;
842;SDS011;407;48.884;9.126;2022-07-12T05:38:53;7.65;;;4.30;;
842;SDS011;407;48.884;9.126;2022-07-12T05:41:19;13.10;;;5.30;;
842;SDS011;407;48.884;9.126;2022-07-12T05:43:44;7.35;;;5.07;;
842;SDS011;407;48.884;9.126;2022-07-12T05:46:10;7.83;;;5.00;;
842;SDS011;407;48.884;9.126;2022-07-12T05:48:36;8.33;;;4.80;;
842;SDS011;407;48.884;9.126;2022-07-12T05:51:02;7.10;;;4.90;;
842;SDS011;407;48.884;9.126;2022-07-12T05:53:47;7.10;;;4.10;;
842;SDS011;407;48.884;9.126;2022-07-12T05:56:13;7.38;;;4.38;;
842;SDS011;407;48.884;9.126;2022-07-12T05:58:39;7.07;;;3.88;;
842;SDS011;407;48.884;9.126;2022-07-12T06:01:05;8.33;;;4.77;;
842;SDS011;407;48.884;9.126;2022-07-12T06:03:31;7.40;;;4.40;;
842;SDS011;407;48.884;9.126;2022-07-12T06:05:57;7.10;;;4.90;;
842;SDS011;407;48.884;9.126;2022-07-12T06:08:23;9.70;;;4.90;;
842;SDS011;407;48.884;9.126;2022-07-12T06:10:49;7.37;;;4.57;;
842;SDS011;407;48.884;9.126;2022-07-12T06:13:14;8.40;;;5.65;;
842;SDS011;407;48.884;9.126;2022-07-12T06:15:40;7.00;;;4.40;;
842;SDS011;407;48.884;9.126;2022-07-12T06:18:06;7.63;;;6.60;;
842;SDS011;407;48.884;9.126;2022-07-12T06:20:31;7.60;;;3.23;;
842;SDS011;407;48.884;9.126;2022-07-12T06:22:57;9.07;;;4.77;;
842;SDS011;407;48.884;9.126;2022-07-12T06:25:23;9.17;;;3.80;;
842;SDS011;407;48.884;9.126;2022-07-12T06:27:49;8.53;;;7.63;;
842;SDS011;407;48.884;9.126;2022-07-12T06:30:19;6.40;;;2.40;;
842;SDS011;407;48.884;9.126;2022-07-12T06:32:46;6.93;;;2.33;;
842;SDS011;407;48.884;9.126;2022-07-12T06:35:13;5.60;;;1.70;;
842;SDS011;407;48.884;9.126;2022-07-12T06:37:39;10.38;;;1.88;;
842;SDS011;407;48.884;9.126;2022-07-12T06:40:08;6.00;;;1.83;;
842;SDS011;407;48.884;9.126;2022-07-12T06:42:35;5.30;;;1.50;;
842;SDS011;407;48.884;9.126;2022-07-12T06:45:00;5.85;;;1.65;;
842;SDS011;407;48.884;9.126;2022-07-12T06:47:26;4.90;;;1.30;;
842;SDS011;407;48.884;9.126;2022-07-12T06:49:52;6.05;;;1.50;;
842;SDS011;407;48.884;9.126;2022-07-12T06:52:18;5.37;;;1.77;;
842;SDS011;407;48.884;9.126;2022-07-12T06:54:43;6.17;;;4.17;;
842;SDS011;407;48.884;9.126;2022-07-12T06:57:09;6.80;;;3.60;;
842;SDS011;407;48.884;9.126;2022-07-12T06:59:35;6.40;;;5.03;;
842;SDS011;407;48.884;9.126;2022-07-12T07:02:00;6.20;;;4.50;;
842;SDS011;407;48.884;9.126;2022-07-12T07:04:26;6.10;;;4.93;;
842;SDS011;407;48.884;9.126;2022-07-12T07:06:52;5.90;;;2.40;;
842;SDS011;407;48.884;9.126;2022-07-12T07:09:18;5.50;;;2.33;;
842;SDS011;407;48.884;9.126;2022-07-12T07:11:44;7.10;;;2.60;;
842;SDS011;407;48.884;9.126;2022-07-12T07:14:10;4.97;;;1.30;;
842;SDS011;407;48.884;9.126;2022-07-12T07:16:36;5.72;;;3.10;;
842;SDS011;407;48.884;9.126;2022-07-12T07:19:01;5.40;;;1.40;;
842;SDS011;407;48.884;9.126;2022-07-12T07:21:27;6.07;;;3.33;;
842;SDS011;407;48.884;9.126;2022-07-12T07:23:53;4.70;;;1.00;;
842;SDS011;407;48.884;9.126;2022-07-12T07:26:19;7.50;;;2.67;;
842;SDS011;407;48.884;9.126;2022-07-12T07:28:45;5.87;;;1.50;;
842;SDS011;407;48.884;9.126;2022-07-12T07:31:29;5.72;;;3.38;;
842;SDS011;407;48.884;9.126;2022-07-12T07:33:58;7.97;;;4.83;;
842;SDS011;407;48.884;9.126;2022-07-12T07:36:23;7.27;;;4.93;;
842;SDS011;407;48.884;9.126;2022-07-12T07:38:49;6.45;;;4.43;;
842;SDS011;407;48.884;9.126;2022-07-12T07:41:15;5.60;;;4.05;;
842;SDS011;407;48.884;9.126;2022-07-12T07:43:40;5.60;;;3.80;;
842;SDS011;407;48.884;9.126;2022-07-12T07:46:06;6.20;;;4.30;;
842;SDS011;407;48.884;9.126;2022-07-12T07:48:31;6.88;;;5.90;;
842;SDS011;407;48.884;9.126;2022-07-12T07:50:57;5.70;;;4.50;;
842;SDS011;407;48.884;9.126;2022-07-12T07:53:23;6.00;;;2.50;;
842;SDS011;407;48.884;9.126;2022-07-12T07:55:50;5.30;;;2.10;;
842;SDS011;407;48.884;9.126;2022-07-12T07:58:15;5.40;;;1.92;;
842;SDS011;407;48.884;9.126;2022-07-12T08:00:41;5.07;;;2.23;;
842;SDS011;407;48.884;9.126;2022-07-12T08:03:07;7.30;;;4.70;;
842;SDS011;407;48.884;9.126;2022-07-12T08:05:32;4.30;;;0.50;;
842;SDS011;407;48.884;9.126;2022-07-12T08:07:58;4.27;;;0.37;;
842;SDS011;407;48.884;9.126;2022-07-12T08:10:24;4.20;;;0.40;;
842;SDS011;407;48.884;9.126;2022-07-12T08:12:50;4.90;;;0.50;;
842;SDS011;407;48.884;9.126;2022-07-12T08:15:16;4.40;;;0.40;;
842;SDS011;407;48.884;9.126;2022-07-12T08:17:42;4.20;;;0.40;;
842;SDS011;407;48.884;9.126;2022-07-12T08:20:08;4.40;;;0.40;;
842;SDS011;407;48.884;9.126;2022-07-12T08:22:34;5.68;;;0.60;;
842;SDS011;407;48.884;9.126;2022-07-12T08:25:07;4.30;;;0.40;;
842;SDS011;407;48.884;9.126;2022-07-12T08:27:33;4.30;;;0.50;;
842;SDS011;407;48.884;9.126;2022-07-12T08:29:58;4.60;;;0.43;;
842;SDS011;407;48.884;9.126;2022-07-12T08:32:24;4.40;;;0.60;;
842;SDS011;407;48.884;9.126;2022-07-12T08:34:49;5.70;;;0.70;;
842;SDS011;407;48.884;9.126;2022-07-12T08:37:15;4.77;;;0.50;;
842;SDS011;407;48.884;9.126;2022-07-12T08:39:41;4.80;;;1.97;;
842;SDS011;407;48.884;9.126;2022-07-12T08:42:07;4.73;;;2.03;;
842;SDS011;407;48.884;9.126;2022-07-12T08:44:33;5.60;;;0.90;;
842;SDS011;407;48.884;9.126;2022-07-12T08:46:59;5.20;;;1.30;;
842;SDS011;407;48.884;9.126;2022-07-12T08:49:25;5.20;;;1.30;;
842;SDS011;407;48.884;9.126;2022-07-12T08:51:50;5.10;;;3.00;;
842;SDS011;407;48.884;9.126;2022-07-12T08:54:16;4.38;;;0.73;;
842;SDS011;407;48.884;9.126;2022-07-12T08:56:43;6.20;;;3.40;;
842;SDS011;407;48.884;9.126;2022-07-12T09:01:43;7.20;;;5.70;;
842;SDS011;407;48.884;9.126;2022-07-12T09:04:25;5.97;;;5.20;;
842;SDS011;407;48.884;9.126;2022-07-12T09:06:52;6.20;;;5.50;;
842;SDS011;407;48.884;9.126;2022-07-12T09:09:26;6.68;;;6.07;;
842;SDS011;407;48.884;9.126;2022-07-12T09:11:52;6.10;;;5.35;;
842;SDS011;407;48.884;9.126;2022-07-12T09:14:19;6.10;;;5.05;;
842;SDS011;407;48.884;9.126;2022-07-12T09:16:57;6.43;;;5.82;;
842;SDS011;407;48.884;9.126;2022-07-12T09:19:28;6.00;;;5.30;;
842;SDS011;407;48.884;9.126;2022-07-12T09:21:54;6.30;;;4.80;;
842;SDS011;407;48.884;9.126;2022-07-12T09:24:23;6.45;;;5.07;;
842;SDS011;407;48.884;9.126;2022-07-12T09:26:52;7.30;;;5.10;;
842;SDS011;407;48.884;9.126;2022-07-12T09:29:26;7.28;;;5.95;;
842;SDS011;407;48.884;9.126;2022-07-12T09:31:51;6.47;;;5.80;;
842;SDS011;407;48.884;9.126;2022-07-12T09:34:36;6.10;;;4.53;;
842;SDS011;407;48.884;9.126;2022-07-12T09:37:21;6.20;;;4.72;;
842;SDS011;407;48.884;9.126;2022-07-12T09:39:48;5.70;;;3.90;;
842;SDS011;407;48.884;9.126;2022-07-12T09:42:14;5.20;;;2.45;;
842;SDS011;407;48.884;9.126;2022-07-12T09:44:40;5.40;;;3.43;;
842;SDS011;407;48.884;9.126;2022-07-12T09:47:08;5.00;;;0.60;;
842;SDS011;407;48.884;9.126;2022-07-12T09:49:41;5.32;;;0.90;;
842;SDS011;407;48.884;9.126;2022-07-12T09:52:12;5.25;;;0.90;;
842;SDS011;407;48.884;9.126;2022-07-12T09:54:45;4.40;;;0.80;;
842;SDS011;407;48.884;9.126;2022-07-12T09:57:21;5.30;;;1.10;;
842;SDS011;407;48.884;9.126;2022-07-12T09:59:50;6.28;;;4.20;;
842;SDS011;407;48.884;9.126;2022-07-12T10:02:18;8.40;;;3.55;;
842;SDS011;407;48.884;9.126;2022-07-12T10:04:46;6.10;;;5.00;;
842;SDS011;407;48.884;9.126;2022-07-12T10:07:13;6.07;;;5.07;;
842;SDS011;407;48.884;9.126;2022-07-12T10:09:40;6.10;;;5.20;;
842;SDS011;407;48.884;9.126;2022-07-12T10:12:10;5.40;;;3.90;;
842;SDS011;407;48.884;9.126;2022-07-12T10:14:38;5.80;;;3.30;;
842;SDS011;407;48.884;9.126;2022-07-12T10:17:05;5.57;;;3.40;;
842;SDS011;407;48.884;9.126;2022-07-12T10:19:34;5.85;;;3.70;;
842;SDS011;407;48.884;9.126;2022-07-12T10:22:01;6.22;;;3.92;;
842;SDS011;407;48.884;9.126;2022-07-12T10:27:26;6.30;;;3.92;;
842;SDS011;407;48.884;9.126;2022-07-12T10:29:46;5.40;;;3.70;;
842;SDS011;407;48.884;9.126;2022-07-12T10:32:20;6.70;;;4.20;;
842;SDS011;407;48.884;9.126;2022-07-12T10:37:28;5.63;;;3.95;;
842;SDS011;407;48.884;9.126;2022-07-12T10:40:14;5.18;;;3.47;;
842;SDS011;407;48.884;9.126;2022-07-12T10:45:42;6.60;;;5.40;;
842;SDS011;407;48.884;9.126;2022-07-12T10:48:19;6.40;;;5.80;;
842;SDS011;407;48.884;9.126;2022-07-12T10:53:33;6.70;;;5.70;;
842;SDS011;407;48.884;9.126;2022-07-12T10:58:53;5.50;;;4.00;;
842;SDS011;407;48.884;9.126;2022-07-12T11:01:24;5.50;;;4.20;;
842;SDS011;407;48.884;9.126;2022-07-12T11:03:55;5.80;;;3.70;;
842;SDS011;407;48.884;9.126;2022-07-12T11:06:22;7.10;;;4.40;;
842;SDS011;407;48.884;9.126;2022-07-12T11:11:17;5.60;;;4.20;;
842;SDS011;407;48.884;9.126;2022-07-12T11:13:43;5.20;;;3.58;;
842;SDS011;407;48.884;9.126;2022-07-12T11:16:09;5.20;;;3.40;;
842;SDS011;407;48.884;9.126;2022-07-12T11:18:35;6.20;;;4.20;;
842;SDS011;407;48.884;9.126;2022-07-12T11:21:02;5.50;;;4.60;;
842;SDS011;407;48.884;9.126;2022-07-12T11:23:29;5.80;;;5.00;;
842;SDS011;407;48.884;9.126;2022-07-12T11:26:03;5.45;;;4.10;;
842;SDS011;407;48.884;9.126;2022-07-12T11:28:30;5.40;;;3.60;;
842;SDS011;407;48.884;9.126;2022-07-12T11:31:03;5.77;;;4.70;;
842;SDS011;407;48.884;9.126;2022-07-12T11:33:31;5.80;;;4.13;;
842;SDS011;407;48.884;9.126;2022-07-12T11:36:02;6.70;;;4.72;;
842;SDS011;407;48.884;9.126;2022-07-12T11:38:30;5.90;;;4.95;;
842;SDS011;407;48.884;9.126;2022-07-12T11:40:59;7.23;;;4.27;;
842;SDS011;407;48.884;9.126;2022-07-12T11:43:26;5.40;;;3.80;;
842;SDS011;407;48.884;9.126;2022-07-12T11:45:52;5.60;;;4.03;;
842;SDS011;407;48.884;9.126;2022-07-12T11:48:19;6.18;;;4.13;;
842;SDS011;407;48.884;9.126;2022-07-12T11:50:46;7.00;;;5.70;;
842;SDS011;407;48.884;9.126;2022-07-12T11:53:19;6.25;;;5.32;;
842;SDS011;407;48.884;9.126;2022-07-12T11:55:46;5.80;;;5.00;;
842;SDS011;407;48.884;9.126;2022-07-12T11:58:13;7.20;;;5.00;;
842;SDS011;407;48.884;9.126;2022-07-12T12:00:40;5.80;;;4.70;;
842;SDS011;407;48.884;9.126;2022-07-12T12:03:06;5.78;;;4.40;;
842;SDS011;407;48.884;9.126;2022-07-12T12:05:32;6.23;;;4.70;;
842;SDS011;407;48.884;9.126;2022-07-12T12:08:02;5.30;;;3.83;;
842;SDS011;407;48.884;9.126;2022-07-12T12:10:28;6.38;;;4.75;;
842;SDS011;407;48.884;9.126;2022-07-12T12:12:55;5.53;;;4.05;;
842;SDS011;407;48.884;9.126;2022-07-12T12:15:23;6.00;;;4.70;;
842;SDS011;407;48.884;9.126;2022-07-12T12:17:56;5.90;;;4.47;;
842;SDS011;407;48.884;9.126;2022-07-12T12:20:26;7.53;;;4.70;;
842;SDS011;407;48.884;9.126;2022-07-12T12:23:02;6.20;;;4.90;;
842;SDS011;407;48.884;9.126;2022-07-12T12:25:47;5.70;;;4.30;;
842;SDS011;407;48.884;9.126;2022-07-12T12:28:12;5.38;;;3.63;;
842;SDS011;407;48.884;9.126;2022-07-12T12:30:48;5.50;;;4.00;;
842;SDS011;407;48.884;9.126;2022-07-12T12:33:32;6.00;;;4.53;;
842;SDS011;407;48.884;9.126;2022-07-12T12:36:17;5.70;;;4.60;;
842;SDS011;407;48.884;9.126;2022-07-12T12:38:54;5.70;;;4.20;;
842;SDS011;407;48.884;9.126;2022-07-12T12:41:22;5.80;;;4.38;;
842;SDS011;407;48.884;9.126;2022-07-12T12:43:55;5.60;;;4.30;;
842;SDS011;407;48.884;9.126;2022-07-12T12:46:42;5.60;;;4.40;;
842;SDS011;407;48.884;9.126;2022-07-12T12:49:50;5.70;;;4.60;;
842;SDS011;407;48.884;9.126;2022-07-12T12:52:17;5.40;;;3.70;;
842;SDS011;407;48.884;9.126;2022-07-12T12:54:44;6.40;;;4.67;;
842;SDS011;407;48.884;9.126;2022-07-12T12:57:10;7.40;;;4.00;;
842;SDS011;407;48.884;9.126;2022-07-12T12:59:36;5.60;;;4.18;;
842;SDS011;407;48.884;9.126;2022-07-12T13:02:03;5.20;;;3.40;;
842;SDS011;407;48.884;9.126;2022-07-12T13:04:30;5.30;;;3.97;;
842;SDS011;407;48.884;9.126;2022-07-12T13:06:57;5.50;;;4.00;;
842;SDS011;407;48.884;9.126;2022-07-12T13:09:23;5.90;;;4.40;;
842;SDS011;407;48.884;9.126;2022-07-12T13:11:49;5.60;;;3.80;;
842;SDS011;407;48.884;9.126;2022-07-12T13:14:15;5.85;;;3.95;;
842;SDS011;407;48.884;9.126;2022-07-12T13:16:40;5.45;;;3.90;;
842;SDS011;407;48.884;9.126;2022-07-12T13:19:06;6.18;;;4.10;;
842;SDS011;407;48.884;9.126;2022-07-12T13:21:35;5.22;;;3.40;;
842;SDS011;407;48.884;9.126;2022-07-12T13:24:01;5.70;;;4.75;;
842;SDS011;407;48.884;9.126;2022-07-12T13:26:26;5.80;;;4.40;;
842;SDS011;407;48.884;9.126;2022-07-12T13:28:53;5.70;;;4.20;;
842;SDS011;407;48.884;9.126;2022-07-12T13:31:19;7.63;;;4.10;;
842;SDS011;407;48.884;9.126;2022-07-12T13:33:45;5.60;;;3.70;;
842;SDS011;407;48.884;9.126;2022-07-12T13:36:11;6.55;;;3.40;;
842;SDS011;407;48.884;9.126;2022-07-12T13:38:37;5.93;;;3.90;;
842;SDS011;407;48.884;9.126;2022-07-12T13:41:03;5.23;;;3.40;;
842;SDS011;407;48.884;9.126;2022-07-12T13:43:29;7.30;;;3.80;;
842;SDS011;407;48.884;9.126;2022-07-12T13:45:55;5.28;;;3.15;;
842;SDS011;407;48.884;9.126;2022-07-12T13:48:21;5.50;;;3.37;;
842;SDS011;407;48.884;9.126;2022-07-12T13:50:47;5.40;;;3.70;;
842;SDS011;407;48.884;9.126;2022-07-12T13:53:13;5.50;;;3.50;;
842;SDS011;407;48.884;9.126;2022-07-12T13:55:41;6.28;;;3.30;;
842;SDS011;407;48.884;9.126;2022-07-12T13:58:08;5.50;;;3.90;;
842;SDS011;407;48.884;9.126;2022-07-12T14:00:34;5.40;;;3.20;;
842;SDS011;407;48.884;9.126;2022-07-12T14:03:00;6.07;;;4.53;;
842;SDS011;407;48.884;9.126;2022-07-12T14:05:26;5.10;;;3.20;;
842;SDS011;407;48.884;9.126;2022-07-12T14:07:52;5.40;;;4.00;;
842;SDS011;407;48.884;9.126;2022-07-12T14:10:18;6.50;;;3.80;;
842;SDS011;407;48.884;9.126;2022-07-12T14:12:44;5.80;;;4.00;;
842;SDS011;407;48.884;9.126;2022-07-12T14:15:10;5.50;;;3.90;;
842;SDS011;407;48.884;9.126;2022-07-12T14:17:47;5.70;;;4.13;;
842;SDS011;407;48.884;9.126;2022-07-12T14:20:15;6.30;;;4.03;;
842;SDS011;407;48.884;9.126;2022-07-12T14:22:49;5.80;;;3.10;;
842;SDS011;407;48.884;9.126;2022-07-12T14:25:15;5.63;;;3.35;;
842;SDS011;407;48.884;9.126;2022-07-12T14:27:41;5.15;;;3.47;;
842;SDS011;407;48.884;9.126;2022-07-12T14:30:09;5.30;;;3.50;;
842;SDS011;407;48.884;9.126;2022-07-12T14:32:37;5.70;;;3.30;;
842;SDS011;407;48.884;9.126;2022-07-12T14:35:03;6.68;;;3.78;;
842;SDS011;407;48.884;9.126;2022-07-12T14:37:30;5.30;;;2.93;;
842;SDS011;407;48.884;9.126;2022-07-12T14:39:57;7.55;;;4.20;;
842;SDS011;407;48.884;9.126;2022-07-12T14:42:22;5.20;;;3.10;;
842;SDS011;407;48.884;9.126;2022-07-12T14:44:48;6.47;;;3.30;;
842;SDS011;407;48.884;9.126;2022-07-12T14:47:14;6.10;;;4.00;;
842;SDS011;407;48.884;9.126;2022-07-12T14:49:40;6.47;;;4.10;;
842;SDS011;407;48.884;9.126;2022-07-12T14:52:05;5.20;;;3.40;;
842;SDS011;407;48.884;9.126;2022-07-12T14:54:34;5.70;;;3.40;;
842;SDS011;407;48.884;9.126;2022-07-12T14:57:00;5.22;;;3.25;;
842;SDS011;407;48.884;9.126;2022-07-12T14:59:25;5.50;;;4.40;;
842;SDS011;407;48.884;9.126;2022-07-12T15:01:51;6.40;;;4.70;;
842;SDS011;407;48.884;9.126;2022-07-12T15:04:17;6.40;;;4.07;;
842;SDS011;407;48.884;9.126;2022-07-12T15:06:43;5.80;;;4.10;;
842;SDS011;407;48.884;9.126;2022-07-12T15:09:08;5.30;;;3.90;;
842;SDS011;407;48.884;9.126;2022-07-12T15:11:34;6.50;;;4.77;;
842;SDS011;407;48.884;9.126;2022-07-12T15:14:00;6.00;;;4.60;;
842;SDS011;407;48.884;9.126;2022-07-12T15:16:26;6.30;;;4.20;;
842;SDS011;407;48.884;9.126;2022-07-12T15:18:52;5.88;;;4.20;;
842;SDS011;407;48.884;9.126;2022-07-12T15:21:19;5.70;;;4.40;;
842;SDS011;407;48.884;9.126;2022-07-12T15:23:45;5.90;;;4.20;;
842;SDS011;407;48.884;9.126;2022-07-12T15:26:11;5.70;;;4.20;;
842;SDS011;407;48.884;9.126;2022-07-12T15:28:47;5.90;;;4.40;;
842;SDS011;407;48.884;9.126;2022-07-12T15:31:18;7.75;;;3.97;;
842;SDS011;407;48.884;9.126;2022-07-12T15:33:44;6.10;;;4.00;;
842;SDS011;407;48.884;9.126;2022-07-12T15:36:10;5.60;;;3.75;;
842;SDS011;407;48.884;9.126;2022-07-12T15:38:36;7.22;;;3.90;;
842;SDS011;407;48.884;9.126;2022-07-12T15:41:02;6.20;;;3.10;;
842;SDS011;407;48.884;9.126;2022-07-12T15:43:27;6.20;;;4.10;;
842;SDS011;407;48.884;9.126;2022-07-12T15:45:53;5.80;;;4.00;;
842;SDS011;407;48.884;9.126;2022-07-12T15:48:19;6.20;;;4.00;;
842;SDS011;407;48.884;9.126;2022-07-12T15:50:47;5.20;;;3.40;;
842;SDS011;407;48.884;9.126;2022-07-12T15:53:12;6.10;;;4.30;;
842;SDS011;407;48.884;9.126;2022-07-12T15:55:54;6.10;;;3.50;;
842;SDS011;407;48.884;9.126;2022-07-12T15:58:25;5.35;;;3.55;;
842;SDS011;407;48.884;9.126;2022-07-12T16:00:53;5.80;;;3.80;;
842;SDS011;407;48.884;9.126;2022-07-12T16:03:19;6.40;;;4.63;;
842;SDS011;407;48.884;9.126;2022-07-12T16:05:45;6.05;;;4.25;;